createdAt,value
2023-08-09T00:01:56.197Z,72.46
2023-08-09T00:04:24.133Z,72.63
2023-08-09T00:06:51.235Z,72.26
2023-08-09T00:09:18.449Z,72.55
2023-08-09T00:11:45.583Z,71.45
2023-08-09T00:14:12.730Z,72.70
2023-08-09T00:16:41.774Z,73.03
2023-08-09T00:19:10.274Z,73.56
2023-08-09T00:21:37.680Z,74.39
2023-08-09T00:24:07.486Z,75.17
2023-08-09T00:26:34.597Z,74.68
2023-08-09T00:29:01.712Z,74.34
2023-08-09T00:31:29.924Z,74.74
2023-08-09T00:33:59.212Z,75.96
2023-08-09T00:36:28.147Z,76.80
2023-08-09T00:38:55.342Z,75.71
2023-08-09T00:41:22.473Z,75.05
2023-08-09T00:43:49.640Z,75.21
2023-08-09T00:46:17.008Z,74.84
2023-08-09T00:48:44.245Z,75.83
2023-08-09T00:51:11.440Z,75.90
2023-08-09T00:53:39.567Z,75.56
2023-08-09T00:56:07.013Z,74.93
2023-08-09T00:58:34.172Z,73.98
2023-08-09T01:01:01.312Z,74.92
2023-08-09T01:03:28.611Z,74.56
2023-08-09T01:06:14.579Z,75.39
2023-08-09T01:08:47.060Z,75.94
2023-08-09T01:11:22.416Z,75.46
2023-08-09T01:13:53.115Z,74.88
2023-08-09T01:16:22.229Z,76.86
2023-08-09T01:18:51.653Z,77.10
2023-08-09T01:21:20.668Z,77.02
2023-08-09T01:23:49.474Z,76.50
2023-08-09T01:26:16.645Z,78.40
2023-08-09T01:28:43.851Z,77.27
2023-08-09T01:31:11.990Z,76.29
2023-08-09T01:33:39.286Z,75.42
2023-08-09T01:36:12.500Z,75.63
2023-08-09T01:38:48.756Z,77.76
2023-08-09T01:41:16.355Z,77.14
2023-08-09T01:43:45.007Z,76.08
2023-08-09T01:46:24.681Z,79.56
2023-08-09T01:48:52.080Z,78.80
2023-08-09T01:51:19.283Z,79.44
2023-08-09T01:53:46.400Z,80.80
2023-08-09T01:56:13.578Z,79.25
2023-08-09T01:58:40.718Z,79.24
2023-08-09T02:01:09.556Z,80.54
2023-08-09T02:03:36.847Z,80.30
2023-08-09T02:06:04.026Z,79.61
2023-08-09T02:08:31.133Z,80.30
2023-08-09T02:10:58.262Z,81.08
2023-08-09T02:13:25.456Z,79.94
2023-08-09T02:15:52.638Z,78.50
2023-08-09T02:18:20.306Z,79.47
2023-08-09T02:20:47.597Z,80.39
2023-08-09T02:23:14.720Z,80.98
2023-08-09T02:25:41.946Z,79.50
2023-08-09T02:28:09.588Z,81.33
2023-08-09T02:30:36.783Z,80.77
2023-08-09T02:33:04.194Z,81.64
2023-08-09T02:35:47.531Z,81.73
2023-08-09T02:38:16.846Z,80.67
2023-08-09T02:40:43.973Z,81.29
2023-08-09T02:43:12.331Z,80.35
2023-08-09T02:45:40.073Z,80.34
2023-08-09T02:48:07.289Z,82.63
2023-08-09T02:50:34.502Z,82.16
2023-08-09T02:53:04.517Z,82.79
2023-08-09T02:55:32.691Z,81.83
2023-08-09T02:58:01.467Z,82.18
2023-08-09T03:00:28.625Z,81.81
2023-08-09T03:02:55.957Z,82.81
2023-08-09T03:05:23.207Z,82.97
2023-08-09T03:07:50.409Z,83.53
2023-08-09T03:10:17.828Z,83.06
2023-08-09T03:12:45.488Z,82.41
2023-08-09T03:15:13.499Z,83.44
2023-08-09T03:17:40.719Z,83.96
2023-08-09T03:20:14.282Z,84.00
2023-08-09T03:22:49.843Z,84.84
2023-08-09T03:25:17.917Z,82.33
2023-08-09T03:27:48.328Z,82.70
2023-08-09T03:30:17.358Z,81.72
2023-08-09T03:32:44.683Z,82.21
2023-08-09T03:35:12.026Z,83.32
2023-08-09T03:37:39.546Z,84.09
2023-08-09T03:40:09.542Z,84.47
2023-08-09T03:42:36.747Z,84.71
2023-08-09T03:45:04.115Z,84.51
2023-08-09T03:47:31.569Z,84.98
2023-08-09T03:49:58.797Z,84.68
2023-08-09T03:52:26.375Z,84.61
2023-08-09T03:54:55.062Z,84.13
2023-08-09T03:57:22.784Z,82.98
2023-08-09T03:59:53.089Z,83.30
2023-08-09T04:02:20.308Z,83.81
2023-08-09T04:04:48.408Z,83.72
2023-08-09T04:07:15.897Z,82.64
2023-08-09T04:09:43.012Z,83.59
2023-08-09T04:12:10.196Z,83.76
2023-08-09T04:14:37.306Z,82.58
2023-08-09T04:17:07.374Z,83.57
2023-08-09T04:19:34.515Z,83.10
2023-08-09T04:22:02.093Z,83.20
2023-08-09T04:24:29.274Z,84.34
2023-08-09T04:26:56.408Z,83.89
2023-08-09T04:29:23.536Z,83.97
2023-08-09T04:31:50.876Z,83.37
2023-08-09T04:34:18.050Z,83.44
2023-08-09T04:36:45.201Z,83.30
2023-08-09T04:39:12.704Z,83.33
2023-08-09T04:41:41.661Z,83.81
2023-08-09T04:44:08.783Z,84.07
2023-08-09T04:46:36.548Z,84.23
2023-08-09T04:49:04.415Z,83.71
2023-08-09T04:51:31.523Z,84.02
2023-08-09T04:53:58.701Z,84.49
2023-08-09T04:56:25.912Z,84.86
2023-08-09T04:58:53.098Z,84.18
2023-08-09T05:01:20.403Z,83.04
2023-08-09T05:03:47.546Z,83.82
2023-08-09T05:06:14.654Z,82.81
2023-08-09T05:08:41.802Z,83.73
2023-08-09T05:11:08.915Z,83.81
2023-08-09T05:13:36.360Z,83.06
2023-08-09T05:16:03.634Z,83.88
2023-08-09T05:18:30.803Z,83.51
2023-08-09T05:20:59.177Z,83.67
2023-08-09T05:23:26.297Z,84.18
2023-08-09T05:25:53.486Z,84.02
2023-08-09T05:28:20.609Z,83.12
2023-08-09T05:30:47.883Z,83.80
2023-08-09T05:33:15.043Z,83.88
2023-08-09T05:35:42.156Z,84.18
2023-08-09T05:38:09.420Z,83.51
2023-08-09T05:40:36.534Z,83.45
2023-08-09T05:43:03.808Z,84.07
2023-08-09T05:45:30.997Z,83.42
2023-08-09T05:47:58.179Z,83.32
2023-08-09T05:50:26.066Z,83.51
2023-08-09T05:52:53.197Z,83.38
2023-08-09T05:55:20.375Z,82.99
2023-08-09T05:57:47.513Z,81.72
2023-08-09T06:00:16.903Z,82.77
2023-08-09T06:02:45.688Z,84.58
2023-08-09T06:05:23.056Z,83.46
2023-08-09T06:07:50.250Z,83.80
2023-08-09T06:10:17.456Z,84.37
2023-08-09T06:12:44.567Z,83.94
2023-08-09T06:15:12.392Z,82.28
2023-08-09T06:17:39.724Z,83.23
2023-08-09T06:20:07.203Z,83.42
2023-08-09T06:22:34.338Z,83.40
2023-08-09T06:25:01.532Z,83.18
2023-08-09T06:27:28.694Z,82.27
2023-08-09T06:29:55.826Z,82.51
2023-08-09T06:32:23.363Z,83.64
2023-08-09T06:34:50.625Z,81.47
2023-08-09T06:37:17.767Z,81.93
2023-08-09T06:39:45.317Z,82.79
2023-08-09T06:42:13.344Z,83.17
2023-08-09T06:44:40.753Z,83.83
2023-08-09T06:47:07.890Z,83.64
2023-08-09T06:49:35.484Z,83.38
2023-08-09T06:52:02.896Z,82.91
2023-08-09T06:54:30.215Z,83.47
2023-08-09T06:56:57.368Z,83.73
2023-08-09T06:59:24.970Z,83.18
2023-08-09T07:01:52.243Z,84.21
2023-08-09T07:04:19.811Z,83.51
2023-08-09T07:06:47.183Z,84.11
2023-08-09T07:09:15.477Z,83.55
2023-08-09T07:11:42.585Z,83.68
2023-08-09T07:14:09.703Z,82.92
2023-08-09T07:16:36.937Z,84.41
2023-08-09T07:19:06.071Z,83.81
2023-08-09T07:21:33.257Z,83.40
2023-08-09T07:24:00.371Z,84.25
2023-08-09T07:26:27.830Z,85.09
2023-08-09T07:28:55.201Z,85.61
2023-08-09T07:31:24.747Z,85.20
2023-08-09T07:33:52.318Z,85.14
2023-08-09T07:36:19.846Z,84.35
2023-08-09T07:38:47.050Z,84.20
2023-08-09T07:41:14.251Z,85.27
2023-08-09T07:43:41.401Z,84.15
2023-08-09T07:46:08.558Z,84.41
2023-08-09T07:48:35.810Z,85.03
2023-08-09T07:51:03.020Z,84.42
2023-08-09T07:53:30.316Z,84.75
2023-08-09T07:55:57.494Z,85.91
2023-08-09T07:58:24.694Z,84.85
2023-08-09T08:00:52.023Z,84.73
2023-08-09T08:03:19.249Z,84.79
2023-08-09T08:05:48.961Z,84.38
2023-08-09T08:08:18.604Z,84.39
2023-08-09T08:10:45.952Z,83.82
2023-08-09T08:13:13.481Z,84.13
2023-08-09T08:15:41.011Z,84.46
2023-08-09T08:18:09.058Z,84.31
2023-08-09T08:20:36.474Z,85.62
2023-08-09T08:23:05.174Z,84.07
2023-08-09T08:25:32.874Z,84.64
2023-08-09T08:27:59.994Z,85.04
2023-08-09T08:30:27.142Z,85.36
2023-08-09T08:32:54.293Z,85.22
2023-08-09T08:35:22.106Z,85.40
2023-08-09T08:37:50.795Z,84.81
2023-08-09T08:40:20.182Z,85.61
2023-08-09T08:42:51.162Z,85.56
2023-08-09T08:45:20.517Z,84.31
2023-08-09T08:47:48.819Z,85.42
2023-08-09T08:50:17.600Z,84.04
2023-08-09T08:52:47.372Z,84.33
2023-08-09T08:55:15.288Z,85.00
2023-08-09T08:57:44.234Z,83.85
2023-08-09T09:00:27.840Z,83.27
2023-08-09T09:02:57.869Z,83.65
2023-08-09T09:05:25.239Z,83.79
2023-08-09T09:07:53.476Z,84.54
2023-08-09T09:10:21.685Z,83.36
2023-08-09T09:12:57.318Z,82.98
2023-08-09T09:15:28.777Z,83.15
2023-08-09T09:17:56.361Z,85.01
2023-08-09T09:20:28.734Z,84.82
2023-08-09T09:22:56.273Z,84.57
2023-08-09T09:25:24.509Z,84.55
2023-08-09T09:27:56.679Z,85.71
2023-08-09T09:30:30.509Z,85.81
2023-08-09T09:33:00.399Z,85.70
2023-08-09T09:35:29.451Z,85.08
2023-08-09T09:37:59.898Z,84.88
2023-08-09T09:40:32.411Z,84.92
2023-08-09T09:43:00.394Z,87.06
2023-08-09T09:45:29.310Z,85.28
2023-08-09T09:48:00.411Z,84.23
2023-08-09T09:50:29.445Z,84.65
2023-08-09T09:52:56.714Z,84.44
2023-08-09T09:55:27.295Z,84.39
2023-08-09T09:57:56.133Z,84.28
2023-08-09T10:00:23.978Z,84.58
2023-08-09T10:02:52.993Z,84.93
2023-08-09T10:05:23.569Z,85.88
2023-08-09T10:07:53.835Z,85.58
2023-08-09T10:10:22.048Z,84.89
2023-08-09T10:12:53.931Z,84.87
2023-08-09T10:15:28.538Z,84.82
2023-08-09T10:18:05.227Z,84.71
2023-08-09T10:20:34.784Z,85.04
2023-08-09T10:23:02.431Z,85.08
2023-08-09T10:25:44.573Z,85.03
2023-08-09T10:28:12.063Z,84.91
2023-08-09T10:30:51.116Z,84.87
2023-08-09T10:33:20.187Z,83.10
2023-08-09T10:35:49.659Z,83.82
2023-08-09T10:38:19.808Z,84.37
2023-08-09T10:40:54.223Z,84.80
2023-08-09T10:43:24.503Z,84.67
2023-08-09T10:45:54.700Z,84.33
2023-08-09T10:48:28.858Z,85.96
2023-08-09T10:51:02.137Z,85.45
2023-08-09T10:53:29.281Z,84.78
2023-08-09T10:55:58.276Z,84.26
2023-08-09T10:58:31.799Z,84.82
2023-08-09T11:00:59.107Z,85.47
2023-08-09T11:03:26.365Z,85.11
2023-08-09T11:05:53.692Z,83.93
2023-08-09T11:08:22.021Z,84.22
2023-08-09T11:10:49.475Z,84.03
2023-08-09T11:13:19.813Z,84.85
2023-08-09T11:15:49.140Z,85.12
2023-08-09T11:18:17.203Z,84.84
2023-08-09T11:20:45.945Z,85.22
2023-08-09T11:23:13.870Z,85.16
2023-08-09T11:25:41.464Z,85.05
2023-08-09T11:28:13.378Z,83.88
2023-08-09T11:30:40.700Z,84.25
2023-08-09T11:33:10.129Z,84.70
2023-08-09T11:35:44.590Z,83.57
2023-08-09T11:38:15.205Z,83.44
2023-08-09T11:40:47.608Z,84.05
2023-08-09T11:43:16.888Z,84.34
2023-08-09T11:45:56.105Z,84.58
2023-08-09T11:48:30.861Z,84.79
2023-08-09T11:51:06.994Z,83.59
2023-08-09T11:53:35.672Z,84.69
2023-08-09T11:56:07.869Z,84.08
2023-08-09T11:58:37.041Z,84.29
2023-08-09T12:01:19.700Z,86.59
2023-08-09T12:03:49.337Z,86.62
2023-08-09T12:06:18.911Z,86.18
2023-08-09T12:08:46.179Z,85.32
2023-08-09T12:11:17.282Z,84.60
2023-08-09T12:13:44.514Z,84.01
2023-08-09T12:16:11.780Z,83.26
2023-08-09T12:18:39.046Z,83.46
2023-08-09T12:21:08.163Z,83.97
2023-08-09T12:23:37.717Z,83.65
2023-08-09T12:26:05.555Z,82.84
2023-08-09T12:28:32.873Z,82.99
2023-08-09T12:31:00.154Z,83.26
2023-08-09T12:33:28.331Z,81.61
2023-08-09T12:35:55.532Z,81.13
2023-08-09T12:38:22.679Z,82.60
2023-08-09T12:40:49.894Z,83.85
2023-08-09T12:43:17.101Z,82.71
2023-08-09T12:45:44.571Z,82.20
2023-08-09T12:48:11.900Z,82.40
2023-08-09T12:50:39.804Z,82.39
2023-08-09T12:53:08.866Z,83.97
2023-08-09T12:55:36.442Z,83.54
2023-08-09T12:58:03.769Z,86.19
2023-08-09T13:00:32.312Z,87.98
2023-08-09T13:02:59.456Z,84.54
2023-08-09T13:05:26.609Z,86.68
2023-08-09T13:07:53.764Z,87.53
2023-08-09T13:10:22.013Z,87.85
2023-08-09T13:12:49.304Z,87.02
2023-08-09T13:15:16.454Z,87.15
2023-08-09T13:17:44.480Z,88.64
2023-08-09T13:20:13.482Z,89.08
2023-08-09T13:22:41.880Z,88.52
2023-08-09T13:25:10.562Z,86.87
2023-08-09T13:27:38.598Z,87.43
2023-08-09T13:30:09.044Z,87.55
2023-08-09T13:32:37.386Z,87.26
2023-08-09T13:35:08.598Z,88.40
2023-08-09T13:37:44.577Z,87.75
2023-08-09T13:40:12.393Z,87.68
2023-08-09T13:42:39.646Z,87.66
2023-08-09T13:45:07.610Z,84.62
2023-08-09T13:47:35.808Z,85.95
2023-08-09T13:50:03.202Z,88.54
2023-08-09T13:52:33.109Z,88.59
2023-08-09T13:55:00.330Z,87.91
2023-08-09T13:57:27.509Z,86.44
2023-08-09T13:59:54.866Z,86.25
2023-08-09T14:02:22.423Z,86.20
2023-08-09T14:04:49.652Z,84.67
2023-08-09T14:07:16.852Z,85.50
2023-08-09T14:09:44.321Z,84.28
2023-08-09T14:12:11.779Z,85.10
2023-08-09T14:14:38.960Z,84.37
2023-08-09T14:17:06.235Z,84.80
2023-08-09T14:19:33.448Z,86.38
2023-08-09T14:22:00.838Z,87.38
2023-08-09T14:24:28.147Z,86.76
2023-08-09T14:26:55.334Z,86.84
2023-08-09T14:29:22.520Z,86.94
2023-08-09T14:31:49.631Z,86.72
2023-08-09T14:34:16.836Z,86.38
2023-08-09T14:36:45.288Z,86.93
2023-08-09T14:39:12.605Z,87.18
2023-08-09T14:41:39.712Z,86.72
2023-08-09T14:44:16.087Z,86.58
2023-08-09T14:46:43.296Z,85.11
2023-08-09T14:49:11.637Z,85.57
2023-08-09T14:51:39.797Z,84.05
2023-08-09T14:54:07.284Z,86.16
2023-08-09T14:56:34.436Z,85.36
2023-08-09T14:59:01.599Z,84.95
2023-08-09T15:01:29.384Z,85.75
2023-08-09T15:03:56.667Z,86.56
2023-08-09T15:06:24.044Z,85.25
2023-08-09T15:08:51.446Z,86.45
2023-08-09T15:11:18.554Z,86.56
2023-08-09T15:13:45.691Z,85.76
2023-08-09T15:16:12.837Z,85.37
2023-08-09T15:18:40.015Z,84.62
2023-08-09T15:21:07.189Z,85.85
2023-08-09T15:23:34.469Z,85.43
2023-08-09T15:26:01.601Z,85.90
2023-08-09T15:28:29.211Z,87.52
2023-08-09T15:30:57.894Z,87.65
2023-08-09T15:33:25.226Z,87.06
2023-08-09T15:35:52.481Z,86.30
2023-08-09T15:38:19.630Z,85.18
2023-08-09T15:40:46.798Z,85.50
2023-08-09T15:43:13.934Z,86.36
2023-08-09T15:45:41.069Z,85.62
2023-08-09T15:48:08.764Z,86.52
2023-08-09T15:50:37.725Z,86.01
2023-08-09T15:53:05.332Z,86.56
2023-08-09T15:55:32.525Z,86.78
2023-08-09T15:57:59.806Z,86.69
2023-08-09T16:00:35.878Z,87.07
2023-08-09T16:03:09.563Z,86.31
2023-08-09T16:05:37.671Z,86.06
2023-08-09T16:08:05.108Z,86.76
2023-08-09T16:10:32.345Z,87.56
2023-08-09T16:12:59.608Z,87.75
2023-08-09T16:15:26.837Z,87.23
2023-08-09T16:17:53.963Z,87.06
2023-08-09T16:20:21.123Z,86.55
2023-08-09T16:22:48.245Z,86.64
2023-08-09T16:25:15.410Z,87.44
2023-08-09T16:27:42.646Z,86.87
2023-08-09T16:30:11.077Z,87.54
2023-08-09T16:32:38.357Z,87.41
2023-08-09T16:35:13.667Z,88.33
2023-08-09T16:37:41.152Z,87.37
2023-08-09T16:40:11.376Z,86.35
2023-08-09T16:42:38.524Z,87.56
2023-08-09T16:45:07.695Z,87.00
2023-08-09T16:47:34.871Z,87.91
2023-08-09T16:50:02.414Z,87.15
2023-08-09T16:52:31.709Z,86.18
2023-08-09T16:54:58.950Z,86.12
2023-08-09T16:57:26.379Z,86.22
2023-08-09T16:59:53.616Z,87.54
2023-08-09T17:02:20.741Z,87.21
2023-08-09T17:04:47.897Z,87.83
2023-08-09T17:07:15.020Z,88.05
2023-08-09T17:09:43.117Z,88.68
2023-08-09T17:12:10.311Z,88.13
2023-08-09T17:14:37.512Z,87.90
2023-08-09T17:17:05.152Z,84.79
2023-08-09T17:19:32.540Z,81.83
2023-08-09T17:22:00.012Z,83.30
2023-08-09T17:24:27.180Z,82.60
2023-08-09T17:26:54.369Z,83.71
2023-08-09T17:29:21.468Z,84.89
2023-08-09T17:31:48.658Z,86.09
2023-08-09T17:34:15.774Z,87.97
2023-08-09T17:36:43.076Z,86.79
2023-08-09T17:39:10.261Z,87.44
2023-08-09T17:41:37.483Z,87.89
2023-08-09T17:44:04.912Z,87.43
2023-08-09T17:46:32.081Z,88.08
2023-08-09T17:48:59.265Z,86.75
2023-08-09T17:51:26.474Z,87.35
2023-08-09T17:53:53.572Z,86.55
2023-08-09T17:56:20.891Z,86.77
2023-08-09T17:58:48.017Z,87.49
2023-08-09T18:01:15.208Z,87.13
2023-08-09T18:03:42.428Z,86.88
2023-08-09T18:06:09.746Z,87.17
2023-08-09T18:08:36.918Z,87.38
2023-08-09T18:11:04.091Z,87.04
2023-08-09T18:13:31.244Z,86.94
2023-08-09T18:15:58.392Z,86.86
2023-08-09T18:18:25.632Z,86.67
2023-08-09T18:20:52.798Z,86.52
2023-08-09T18:23:19.932Z,86.45
2023-08-09T18:25:48.382Z,85.98
2023-08-09T18:28:15.546Z,85.51
2023-08-09T18:30:42.763Z,84.84
2023-08-09T18:33:10.040Z,85.17
2023-08-09T18:35:37.260Z,84.82
2023-08-09T18:38:05.161Z,84.73
2023-08-09T18:40:32.408Z,84.41
2023-08-09T18:42:59.610Z,84.29
2023-08-09T18:45:26.922Z,85.46
2023-08-09T18:47:54.199Z,86.04
2023-08-09T18:50:21.600Z,85.58
2023-08-09T18:52:49.018Z,85.47
2023-08-09T18:55:17.470Z,86.22
2023-08-09T18:57:44.660Z,85.79
2023-08-09T19:00:13.418Z,85.62
2023-08-09T19:02:43.940Z,86.15
2023-08-09T19:05:12.384Z,85.55
2023-08-09T19:07:39.515Z,85.88
2023-08-09T19:10:09.490Z,86.05
2023-08-09T19:12:38.278Z,86.04
2023-08-09T19:15:07.230Z,86.65
2023-08-09T19:17:35.325Z,85.63
2023-08-09T19:20:07.757Z,85.54
2023-08-09T19:22:35.093Z,86.35
2023-08-09T19:25:03.119Z,85.90
2023-08-09T19:27:33.066Z,85.25
2023-08-09T19:30:01.130Z,85.35
2023-08-09T19:32:28.459Z,85.83
2023-08-09T19:34:55.583Z,85.54
2023-08-09T19:37:22.746Z,85.66
2023-08-09T19:39:49.874Z,85.83
2023-08-09T19:42:17.222Z,86.59
2023-08-09T19:44:44.341Z,86.42
2023-08-09T19:47:11.478Z,86.41
2023-08-09T19:49:38.682Z,85.80
2023-08-09T19:52:06.697Z,85.77
2023-08-09T19:54:33.867Z,85.81
2023-08-09T19:57:00.994Z,85.36
2023-08-09T19:59:28.655Z,85.36
2023-08-09T20:01:56.280Z,85.68
2023-08-09T20:04:23.939Z,85.73
2023-08-09T20:06:51.044Z,85.24
2023-08-09T20:09:18.232Z,85.27
2023-08-09T20:11:45.439Z,85.25
2023-08-09T20:14:12.577Z,84.88
2023-08-09T20:16:40.202Z,85.52
2023-08-09T20:19:07.331Z,85.49
2023-08-09T20:21:34.466Z,85.44
2023-08-09T20:24:01.609Z,85.04
2023-08-09T20:26:28.731Z,84.39
2023-08-09T20:28:55.859Z,84.66
2023-08-09T20:31:23.043Z,85.44
2023-08-09T20:33:50.224Z,85.12
2023-08-09T20:36:17.426Z,85.14
2023-08-09T20:38:45.883Z,84.28
2023-08-09T20:41:15.379Z,85.05
2023-08-09T20:43:42.635Z,84.67
2023-08-09T20:46:12.729Z,85.14
2023-08-09T20:48:41.969Z,85.07
2023-08-09T20:51:09.079Z,85.68
2023-08-09T20:53:36.201Z,84.23
2023-08-09T20:56:04.172Z,84.16
2023-08-09T20:58:31.321Z,84.59
2023-08-09T21:01:01.493Z,85.74
2023-08-09T21:03:28.634Z,85.42
2023-08-09T21:05:57.007Z,85.89
2023-08-09T21:08:24.189Z,85.57
2023-08-09T21:10:52.621Z,85.95
2023-08-09T21:13:19.875Z,85.29
2023-08-09T21:15:47.042Z,84.72
2023-08-09T21:18:16.191Z,85.01
2023-08-09T21:20:44.132Z,83.45
2023-08-09T21:23:12.141Z,83.21
2023-08-09T21:28:12.087Z,83.78
2023-08-09T21:30:40.228Z,84.26
2023-08-09T21:33:08.777Z,84.94
2023-08-09T21:35:35.973Z,84.21
2023-08-09T21:38:03.135Z,84.40
2023-08-09T21:40:30.294Z,84.83
2023-08-09T21:42:57.391Z,85.15
2023-08-09T21:45:24.511Z,84.76
2023-08-09T21:47:51.699Z,84.34
2023-08-09T21:50:18.902Z,84.77
2023-08-09T21:52:46.013Z,85.05
2023-08-09T21:55:13.373Z,84.95
2023-08-09T21:57:40.571Z,85.17
2023-08-09T22:00:08.925Z,84.94
2023-08-09T22:02:39.245Z,85.70
2023-08-09T22:05:08.220Z,85.19
2023-08-09T22:07:36.806Z,84.14
2023-08-09T22:10:04.334Z,85.05
2023-08-09T22:12:33.852Z,85.82
2023-08-09T22:15:00.986Z,85.37
2023-08-09T22:17:28.149Z,85.27
2023-08-09T22:19:55.363Z,85.28
2023-08-09T22:22:23.554Z,85.68
2023-08-09T22:24:50.650Z,85.41
2023-08-09T22:27:17.821Z,85.65
2023-08-09T22:29:44.932Z,86.21
2023-08-09T22:32:12.087Z,86.40
2023-08-09T22:34:39.216Z,87.04
2023-08-09T22:37:07.439Z,86.03
2023-08-09T22:39:34.617Z,85.84
2023-08-09T22:42:01.993Z,85.38
2023-08-09T22:44:29.486Z,85.64
2023-08-09T22:46:56.745Z,85.84
2023-08-09T22:49:23.868Z,85.91
2023-08-09T22:51:51.092Z,85.25
2023-08-09T22:54:18.266Z,84.41
2023-08-09T22:56:45.435Z,85.22
2023-08-09T22:59:12.590Z,85.62
2023-08-09T23:01:40.145Z,84.54
2023-08-09T23:04:08.186Z,86.26
2023-08-09T23:06:35.307Z,86.04
2023-08-09T23:09:02.479Z,86.35
2023-08-09T23:11:29.607Z,87.13
2023-08-09T23:13:56.745Z,86.86
2023-08-09T23:16:24.370Z,85.90
2023-08-09T23:18:52.951Z,86.63
2023-08-09T23:21:20.160Z,86.41
2023-08-09T23:23:47.298Z,87.20
2023-08-09T23:26:14.411Z,85.88
2023-08-09T23:28:41.550Z,86.36
2023-08-09T23:31:08.693Z,86.19
2023-08-09T23:33:35.895Z,86.62
2023-08-09T23:36:03.748Z,86.80
2023-08-09T23:38:30.954Z,86.43
2023-08-09T23:40:58.152Z,86.45
2023-08-09T23:43:25.282Z,86.27
2023-08-09T23:45:52.430Z,86.26
2023-08-09T23:48:19.599Z,86.58
2023-08-09T23:50:46.709Z,86.94
2023-08-09T23:53:13.882Z,85.27
2023-08-09T23:55:40.993Z,85.87
2023-08-09T23:58:08.192Z,86.15
